sensor_id;sensor_type;location;lat;lon;timestamp;P1;P2;P0
56360;PMS7003;42611;51.132;13.588;2024-03-22T00:01:06;15.9;14.6;
56360;PMS7003;42611;51.132;13.588;2024-03-22T00:06:01;15.0;14.0;
56360;PMS7003;42611;51.132;13.588;2024-03-22T00:11:06;14.6;13.8;
56360;PMS7003;42611;51.132;13.588;2024-03-22T00:16:06;15.3;14.3;
56360;PMS7003;42611;51.132;13.588;2024-03-22T00:21:21;15.4;14.0;
56360;PMS7003;42611;51.132;13.588;2024-03-22T00:26:01;15.8;14.2;
56360;PMS7003;42611;51.132;13.588;2024-03-22T00:31:01;16.1;14.4;
56360;PMS7003;42611;51.132;13.588;2024-03-22T00:36:06;16.4;14.8;
56360;PMS7003;42611;51.132;13.588;2024-03-22T00:41:06;16.3;14.4;
56360;PMS7003;42611;51.132;13.588;2024-03-22T00:46:01;16.8;15.0;
56360;PMS7003;42611;51.132;13.588;2024-03-22T00:51:01;16.5;15.4;
56360;PMS7003;42611;51.132;13.588;2024-03-22T00:56:01;17.4;15.6;
56360;PMS7003;42611;51.132;13.588;2024-03-22T01:01:11;17.7;15.7;
56360;PMS7003;42611;51.132;13.588;2024-03-22T01:06:01;17.2;15.8;
56360;PMS7003;42611;51.132;13.588;2024-03-22T01:11:06;16.0;14.7;
56360;PMS7003;42611;51.132;13.588;2024-03-22T01:16:11;15.2;13.8;
56360;PMS7003;42611;51.132;13.588;2024-03-22T01:21:06;13.6;13.0;
56360;PMS7003;42611;51.132;13.588;2024-03-22T01:26:21;13.2;12.5;
56360;PMS7003;42611;51.132;13.588;2024-03-22T01:31:11;14.4;13.3;
56360;PMS7003;42611;51.132;13.588;2024-03-22T01:36:11;14.3;12.8;
56360;PMS7003;42611;51.132;13.588;2024-03-22T01:41:06;13.8;12.4;
56360;PMS7003;42611;51.132;13.588;2024-03-22T01:46:06;14.8;13.2;
56360;PMS7003;42611;51.132;13.588;2024-03-22T01:51:02;14.4;12.9;
56360;PMS7003;42611;51.132;13.588;2024-03-22T01:56:01;13.6;12.0;
56360;PMS7003;42611;51.132;13.588;2024-03-22T02:01:11;13.8;12.6;
56360;PMS7003;42611;51.132;13.588;2024-03-22T02:06:01;14.8;13.5;
56360;PMS7003;42611;51.132;13.588;2024-03-22T02:11:01;14.6;13.3;
56360;PMS7003;42611;51.132;13.588;2024-03-22T02:16:06;15.6;14.3;
56360;PMS7003;42611;51.132;13.588;2024-03-22T02:21:01;15.0;14.3;
56360;PMS7003;42611;51.132;13.588;2024-03-22T02:26:07;15.8;15.1;
56360;PMS7003;42611;51.132;13.588;2024-03-22T02:31:16;16.1;15.0;
56360;PMS7003;42611;51.132;13.588;2024-03-22T02:36:06;16.9;15.2;
56360;PMS7003;42611;51.132;13.588;2024-03-22T02:41:06;18.3;15.8;
56360;PMS7003;42611;51.132;13.588;2024-03-22T02:46:01;19.0;16.0;
56360;PMS7003;42611;51.132;13.588;2024-03-22T02:51:06;18.9;16.0;
56360;PMS7003;42611;51.132;13.588;2024-03-22T03:01:01;20.3;18.0;
56360;PMS7003;42611;51.132;13.588;2024-03-22T03:06:08;20.1;18.4;
56360;PMS7003;42611;51.132;13.588;2024-03-22T03:11:01;19.8;18.7;
56360;PMS7003;42611;51.132;13.588;2024-03-22T03:16:02;20.2;18.6;
56360;PMS7003;42611;51.132;13.588;2024-03-22T03:21:01;21.5;19.6;
56360;PMS7003;42611;51.132;13.588;2024-03-22T03:26:01;19.2;17.5;
56360;PMS7003;42611;51.132;13.588;2024-03-22T03:31:06;19.7;17.9;
56360;PMS7003;42611;51.132;13.588;2024-03-22T03:36:06;22.1;18.9;
56360;PMS7003;42611;51.132;13.588;2024-03-22T03:41:01;23.4;20.4;
56360;PMS7003;42611;51.132;13.588;2024-03-22T03:46:01;22.6;19.9;
56360;PMS7003;42611;51.132;13.588;2024-03-22T03:51:16;24.8;21.8;
56360;PMS7003;42611;51.132;13.588;2024-03-22T03:56:16;24.2;21.2;
56360;PMS7003;42611;51.132;13.588;2024-03-22T04:01:21;23.6;21.6;
56360;PMS7003;42611;51.132;13.588;2024-03-22T04:06:01;23.4;21.0;
56360;PMS7003;42611;51.132;13.588;2024-03-22T04:11:16;24.5;22.2;
56360;PMS7003;42611;51.132;13.588;2024-03-22T04:16:11;24.2;21.7;
56360;PMS7003;42611;51.132;13.588;2024-03-22T04:21:11;23.8;21.7;
56360;PMS7003;42611;51.132;13.588;2024-03-22T04:26:01;23.6;21.9;
56360;PMS7003;42611;51.132;13.588;2024-03-22T04:36:02;24.0;22.4;
56360;PMS7003;42611;51.132;13.588;2024-03-22T04:41:01;24.2;22.7;
56360;PMS7003;42611;51.132;13.588;2024-03-22T04:46:01;24.8;23.2;
56360;PMS7003;42611;51.132;13.588;2024-03-22T04:51:16;25.4;23.7;
56360;PMS7003;42611;51.132;13.588;2024-03-22T04:57:07;25.8;23.8;
56360;PMS7003;42611;51.132;13.588;2024-03-22T05:02:06;26.1;24.3;
56360;PMS7003;42611;51.132;13.588;2024-03-22T05:07:01;24.7;23.5;
56360;PMS7003;42611;51.132;13.588;2024-03-22T05:12:21;25.1;23.2;
56360;PMS7003;42611;51.132;13.588;2024-03-22T05:17:06;24.4;21.8;
56360;PMS7003;42611;51.132;13.588;2024-03-22T05:22:06;22.8;20.6;
56360;PMS7003;42611;51.132;13.588;2024-03-22T05:27:02;21.0;19.1;
56360;PMS7003;42611;51.132;13.588;2024-03-22T05:37:01;20.7;19.0;
56360;PMS7003;42611;51.132;13.588;2024-03-22T05:42:02;20.0;18.3;
56360;PMS7003;42611;51.132;13.588;2024-03-22T05:47:06;20.3;18.8;
56360;PMS7003;42611;51.132;13.588;2024-03-22T05:57:06;19.0;17.3;
56360;PMS7003;42611;51.132;13.588;2024-03-22T06:02:07;18.4;16.9;
56360;PMS7003;42611;51.132;13.588;2024-03-22T06:07:06;18.0;16.6;
56360;PMS7003;42611;51.132;13.588;2024-03-22T06:12:01;16.0;14.8;
56360;PMS7003;42611;51.132;13.588;2024-03-22T06:17:03;14.7;13.8;
56360;PMS7003;42611;51.132;13.588;2024-03-22T06:22:01;14.2;13.3;
56360;PMS7003;42611;51.132;13.588;2024-03-22T06:27:02;13.6;12.8;
56360;PMS7003;42611;51.132;13.588;2024-03-22T06:32:01;12.3;11.8;
56360;PMS7003;42611;51.132;13.588;2024-03-22T06:37:02;12.4;12.0;
56360;PMS7003;42611;51.132;13.588;2024-03-22T06:42:02;12.1;11.7;
56360;PMS7003;42611;51.132;13.588;2024-03-22T06:47:01;11.4;11.3;
56360;PMS7003;42611;51.132;13.588;2024-03-22T06:52:01;11.6;11.6;
56360;PMS7003;42611;51.132;13.588;2024-03-22T06:57:06;11.9;11.9;
56360;PMS7003;42611;51.132;13.588;2024-03-22T07:07:16;12.0;11.7;
56360;PMS7003;42611;51.132;13.588;2024-03-22T07:12:01;12.9;12.2;
56360;PMS7003;42611;51.132;13.588;2024-03-22T07:17:11;12.6;11.9;
56360;PMS7003;42611;51.132;13.588;2024-03-22T07:22:07;12.7;12.0;
56360;PMS7003;42611;51.132;13.588;2024-03-22T07:32:02;13.6;12.5;
56360;PMS7003;42611;51.132;13.588;2024-03-22T07:37:22;13.0;12.4;
56360;PMS7003;42611;51.132;13.588;2024-03-22T07:42:01;12.8;12.2;
56360;PMS7003;42611;51.132;13.588;2024-03-22T07:47:01;13.2;12.2;
56360;PMS7003;42611;51.132;13.588;2024-03-22T07:52:11;14.0;12.5;
56360;PMS7003;42611;51.132;13.588;2024-03-22T07:57:02;14.2;12.5;
56360;PMS7003;42611;51.132;13.588;2024-03-22T08:02:02;14.6;12.4;
56360;PMS7003;42611;51.132;13.588;2024-03-22T08:07:04;15.6;13.2;
56360;PMS7003;42611;51.132;13.588;2024-03-22T08:12:07;16.2;13.9;
56360;PMS7003;42611;51.132;13.588;2024-03-22T08:17:17;17.1;15.4;
56360;PMS7003;42611;51.132;13.588;2024-03-22T08:22:02;17.3;16.0;
56360;PMS7003;42611;51.132;13.588;2024-03-22T08:27:16;16.8;15.8;
56360;PMS7003;42611;51.132;13.588;2024-03-22T08:32:02;17.1;16.0;
56360;PMS7003;42611;51.132;13.588;2024-03-22T08:37:02;16.8;15.7;
56360;PMS7003;42611;51.132;13.588;2024-03-22T08:42:01;16.4;14.9;
56360;PMS7003;42611;51.132;13.588;2024-03-22T08:47:12;16.6;15.2;
56360;PMS7003;42611;51.132;13.588;2024-03-22T08:52:22;17.6;16.0;
56360;PMS7003;42611;51.132;13.588;2024-03-22T08:57:04;17.0;15.2;
56360;PMS7003;42611;51.132;13.588;2024-03-22T09:02:01;16.9;15.4;
56360;PMS7003;42611;51.132;13.588;2024-03-22T09:07:02;16.2;15.1;
56360;PMS7003;42611;51.132;13.588;2024-03-22T09:12:06;15.5;14.1;
56360;PMS7003;42611;51.132;13.588;2024-03-22T09:17:02;15.3;14.0;
56360;PMS7003;42611;51.132;13.588;2024-03-22T09:22:03;15.1;14.3;
56360;PMS7003;42611;51.132;13.588;2024-03-22T09:27:01;14.2;13.4;
56360;PMS7003;42611;51.132;13.588;2024-03-22T09:32:06;13.7;12.8;
56360;PMS7003;42611;51.132;13.588;2024-03-22T09:37:01;13.0;12.3;
56360;PMS7003;42611;51.132;13.588;2024-03-22T09:47:21;12.4;11.1;
56360;PMS7003;42611;51.132;13.588;2024-03-22T09:52:07;12.8;11.0;
56360;PMS7003;42611;51.132;13.588;2024-03-22T09:57:07;13.2;11.0;
56360;PMS7003;42611;51.132;13.588;2024-03-22T10:02:06;13.0;10.8;
56360;PMS7003;42611;51.132;13.588;2024-03-22T10:07:02;12.3;10.4;
56360;PMS7003;42611;51.132;13.588;2024-03-22T10:12:22;12.4;10.3;
56360;PMS7003;42611;51.132;13.588;2024-03-22T10:17:06;11.4;10.0;
56360;PMS7003;42611;51.132;13.588;2024-03-22T10:22:03;10.0;9.2;
56360;PMS7003;42611;51.132;13.588;2024-03-22T10:32:08;8.9;8.3;
56360;PMS7003;42611;51.132;13.588;2024-03-22T10:37:02;7.9;7.4;
56360;PMS7003;42611;51.132;13.588;2024-03-22T10:42:02;8.4;7.4;
56360;PMS7003;42611;51.132;13.588;2024-03-22T10:47:01;7.8;6.2;
56360;PMS7003;42611;51.132;13.588;2024-03-22T10:52:07;7.1;5.7;
56360;PMS7003;42611;51.132;13.588;2024-03-22T10:57:12;7.5;5.9;
56360;PMS7003;42611;51.132;13.588;2024-03-22T11:02:02;7.7;6.2;
56360;PMS7003;42611;51.132;13.588;2024-03-22T11:07:01;7.6;6.2;
56360;PMS7003;42611;51.132;13.588;2024-03-22T11:12:06;8.6;7.7;
56360;PMS7003;42611;51.132;13.588;2024-03-22T11:17:01;9.4;8.5;
56360;PMS7003;42611;51.132;13.588;2024-03-22T11:22:01;10.1;8.9;
56360;PMS7003;42611;51.132;13.588;2024-03-22T11:27:01;10.2;8.8;
56360;PMS7003;42611;51.132;13.588;2024-03-22T11:32:01;9.6;8.6;
56360;PMS7003;42611;51.132;13.588;2024-03-22T11:37:01;8.9;7.8;
56360;PMS7003;42611;51.132;13.588;2024-03-22T11:42:05;9.3;7.6;
56360;PMS7003;42611;51.132;13.588;2024-03-22T11:47:01;8.5;7.1;
56360;PMS7003;42611;51.132;13.588;2024-03-22T11:52:01;9.0;7.6;
56360;PMS7003;42611;51.132;13.588;2024-03-22T11:57:02;9.4;7.9;
56360;PMS7003;42611;51.132;13.588;2024-03-22T12:02:01;10.5;8.9;
56360;PMS7003;42611;51.132;13.588;2024-03-22T12:07:01;10.3;9.2;
56360;PMS7003;42611;51.132;13.588;2024-03-22T12:12:03;11.1;9.8;
56360;PMS7003;42611;51.132;13.588;2024-03-22T12:17:01;11.5;10.4;
56360;PMS7003;42611;51.132;13.588;2024-03-22T12:22:21;11.4;10.3;
56360;PMS7003;42611;51.132;13.588;2024-03-22T12:27:11;10.9;10.2;
56360;PMS7003;42611;51.132;13.588;2024-03-22T12:32:02;10.2;9.0;
56360;PMS7003;42611;51.132;13.588;2024-03-22T12:37:01;9.4;8.6;
56360;PMS7003;42611;51.132;13.588;2024-03-22T12:42:02;9.3;8.2;
56360;PMS7003;42611;51.132;13.588;2024-03-22T12:47:21;9.2;8.3;
56360;PMS7003;42611;51.132;13.588;2024-03-22T12:52:01;10.3;9.2;
56360;PMS7003;42611;51.132;13.588;2024-03-22T12:57:06;11.0;10.3;
56360;PMS7003;42611;51.132;13.588;2024-03-22T13:02:01;11.6;10.8;
56360;PMS7003;42611;51.132;13.588;2024-03-22T13:07:06;11.1;10.4;
56360;PMS7003;42611;51.132;13.588;2024-03-22T13:12:08;11.7;11.1;
56360;PMS7003;42611;51.132;13.588;2024-03-22T13:17:01;11.4;10.5;
56360;PMS7003;42611;51.132;13.588;2024-03-22T13:22:01;10.9;10.2;
56360;PMS7003;42611;51.132;13.588;2024-03-22T13:27:02;10.4;9.7;
56360;PMS7003;42611;51.132;13.588;2024-03-22T13:32:16;11.0;10.4;
56360;PMS7003;42611;51.132;13.588;2024-03-22T13:37:11;10.6;10.0;
56360;PMS7003;42611;51.132;13.588;2024-03-22T13:42:07;10.2;10.0;
56360;PMS7003;42611;51.132;13.588;2024-03-22T13:47:01;10.3;10.1;
56360;PMS7003;42611;51.132;13.588;2024-03-22T13:52:01;11.1;10.7;
56360;PMS7003;42611;51.132;13.588;2024-03-22T13:57:06;11.5;10.8;
56360;PMS7003;42611;51.132;13.588;2024-03-22T14:02:01;13.0;11.5;
56360;PMS7003;42611;51.132;13.588;2024-03-22T14:07:06;13.6;11.5;
56360;PMS7003;42611;51.132;13.588;2024-03-22T14:12:21;14.1;11.8;
56360;PMS7003;42611;51.132;13.588;2024-03-22T14:17:01;13.5;11.4;
56360;PMS7003;42611;51.132;13.588;2024-03-22T14:22:01;13.4;11.4;
56360;PMS7003;42611;51.132;13.588;2024-03-22T14:27:01;12.0;10.9;
56360;PMS7003;42611;51.132;13.588;2024-03-22T14:32:01;11.5;10.8;
56360;PMS7003;42611;51.132;13.588;2024-03-22T14:37:01;10.5;9.9;
56360;PMS7003;42611;51.132;13.588;2024-03-22T14:42:01;10.8;10.1;
56360;PMS7003;42611;51.132;13.588;2024-03-22T14:47:01;10.3;9.8;
56360;PMS7003;42611;51.132;13.588;2024-03-22T14:52:02;11.0;10.0;
56360;PMS7003;42611;51.132;13.588;2024-03-22T14:57:01;11.8;10.7;
56360;PMS7003;42611;51.132;13.588;2024-03-22T15:02:01;13.5;12.4;
56360;PMS7003;42611;51.132;13.588;2024-03-22T15:07:01;15.1;13.9;
56360;PMS7003;42611;51.132;13.588;2024-03-22T15:12:01;16.3;15.1;
56360;PMS7003;42611;51.132;13.588;2024-03-22T15:17:01;15.9;15.0;
56360;PMS7003;42611;51.132;13.588;2024-03-22T15:22:11;15.2;14.4;
56360;PMS7003;42611;51.132;13.588;2024-03-22T15:27:01;14.7;13.7;
56360;PMS7003;42611;51.132;13.588;2024-03-22T15:32:11;14.0;13.2;
56360;PMS7003;42611;51.132;13.588;2024-03-22T15:37:06;13.3;12.5;
56360;PMS7003;42611;51.132;13.588;2024-03-22T15:42:11;14.0;13.0;
56360;PMS7003;42611;51.132;13.588;2024-03-22T15:47:06;14.5;13.3;
56360;PMS7003;42611;51.132;13.588;2024-03-22T15:52:06;15.3;13.7;
56360;PMS7003;42611;51.132;13.588;2024-03-22T15:57:01;15.1;13.5;
56360;PMS7003;42611;51.132;13.588;2024-03-22T16:02:23;15.4;13.4;
56360;PMS7003;42611;51.132;13.588;2024-03-22T16:07:01;16.0;14.0;
56360;PMS7003;42611;51.132;13.588;2024-03-22T16:12:06;16.3;14.5;
56360;PMS7003;42611;51.132;13.588;2024-03-22T16:17:01;16.7;15.6;
56360;PMS7003;42611;51.132;13.588;2024-03-22T16:22:01;16.5;15.5;
56360;PMS7003;42611;51.132;13.588;2024-03-22T16:32:02;16.1;15.2;
56360;PMS7003;42611;51.132;13.588;2024-03-22T16:37:01;16.6;15.6;
56360;PMS7003;42611;51.132;13.588;2024-03-22T16:42:02;15.4;14.4;
56360;PMS7003;42611;51.132;13.588;2024-03-22T16:47:01;15.9;14.7;
56360;PMS7003;42611;51.132;13.588;2024-03-22T16:52:06;16.6;15.0;
56360;PMS7003;42611;51.132;13.588;2024-03-22T16:57:07;19.2;16.7;
56360;PMS7003;42611;51.132;13.588;2024-03-22T17:02:01;19.8;17.4;
56360;PMS7003;42611;51.132;13.588;2024-03-22T17:07:11;21.5;18.7;
56360;PMS7003;42611;51.132;13.588;2024-03-22T17:12:02;23.4;20.8;
56360;PMS7003;42611;51.132;13.588;2024-03-22T17:17:01;23.6;21.4;
56360;PMS7003;42611;51.132;13.588;2024-03-22T17:22:01;23.0;22.0;
56360;PMS7003;42611;51.132;13.588;2024-03-22T17:27:16;24.1;23.0;
56360;PMS7003;42611;51.132;13.588;2024-03-22T17:32:01;25.1;24.0;
56360;PMS7003;42611;51.132;13.588;2024-03-22T17:37:06;24.2;22.7;
56360;PMS7003;42611;51.132;13.588;2024-03-22T17:52:01;24.5;23.3;
56360;PMS7003;42611;51.132;13.588;2024-03-22T17:57:11;24.4;23.6;
56360;PMS7003;42611;51.132;13.588;2024-03-22T18:02:01;25.2;24.7;
56360;PMS7003;42611;51.132;13.588;2024-03-22T18:07:21;26.0;25.0;
56360;PMS7003;42611;51.132;13.588;2024-03-22T18:12:07;25.6;24.6;
56360;PMS7003;42611;51.132;13.588;2024-03-22T18:17:01;24.8;23.5;
56360;PMS7003;42611;51.132;13.588;2024-03-22T18:22:06;23.6;22.6;
56360;PMS7003;42611;51.132;13.588;2024-03-22T18:27:01;25.6;23.6;
56360;PMS7003;42611;51.132;13.588;2024-03-22T18:32:02;24.9;23.5;
56360;PMS7003;42611;51.132;13.588;2024-03-22T18:37:01;25.5;23.6;
56360;PMS7003;42611;51.132;13.588;2024-03-22T18:42:01;26.6;24.7;
56360;PMS7003;42611;51.132;13.588;2024-03-22T18:47:01;27.6;25.7;
56360;PMS7003;42611;51.132;13.588;2024-03-22T18:52:02;26.4;25.0;
56360;PMS7003;42611;51.132;13.588;2024-03-22T18:57:11;26.1;24.7;
56360;PMS7003;42611;51.132;13.588;2024-03-22T19:02:06;26.2;24.8;
56360;PMS7003;42611;51.132;13.588;2024-03-22T19:07:01;25.8;24.2;
56360;PMS7003;42611;51.132;13.588;2024-03-22T19:12:01;25.0;23.2;
56360;PMS7003;42611;51.132;13.588;2024-03-22T19:17:11;25.4;23.0;
56360;PMS7003;42611;51.132;13.588;2024-03-22T19:22:01;27.1;24.4;
56360;PMS7003;42611;51.132;13.588;2024-03-22T19:27:02;28.4;25.8;
56360;PMS7003;42611;51.132;13.588;2024-03-22T19:32:01;34.3;30.0;
56360;PMS7003;42611;51.132;13.588;2024-03-22T19:37:16;39.0;33.2;
56360;PMS7003;42611;51.132;13.588;2024-03-22T19:42:02;41.6;35.1;
56360;PMS7003;42611;51.132;13.588;2024-03-22T19:47:01;43.8;36.3;
56360;PMS7003;42611;51.132;13.588;2024-03-22T19:52:03;46.0;37.2;
56360;PMS7003;42611;51.132;13.588;2024-03-22T20:02:01;40.8;33.6;
56360;PMS7003;42611;51.132;13.588;2024-03-22T20:07:01;39.7;33.0;
56360;PMS7003;42611;51.132;13.588;2024-03-22T20:27:01;35.0;30.8;
